createdAt,value
2018-10-11T00:02:25.362Z,21.53
2018-10-11T00:04:54.151Z,21.33
2018-10-11T00:07:22.678Z,20.37
2018-10-11T00:09:51.178Z,20.73
2018-10-11T00:12:19.658Z,21.43
2018-10-11T00:14:48.142Z,20.30
2018-10-11T00:19:50.904Z,21.50
2018-10-11T00:22:19.559Z,21.27
2018-10-11T00:24:48.071Z,20.67
2018-10-11T00:27:16.559Z,20.10
2018-10-11T00:29:45.043Z,20.10
2018-10-11T00:32:13.515Z,19.93
2018-10-11T00:34:42.011Z,21.63
2018-10-11T00:37:10.454Z,20.57
2018-10-11T00:39:38.935Z,21.43
2018-10-11T00:42:07.371Z,22.50
2018-10-11T00:44:35.826Z,20.20
2018-10-11T00:47:04.245Z,21.80
2018-10-11T00:49:32.859Z,21.67
2018-10-11T00:52:01.291Z,21.40
2018-10-11T00:54:29.688Z,21.10
2018-10-11T00:56:58.246Z,22.67
2018-10-11T00:59:26.760Z,21.53
2018-10-11T01:01:55.176Z,21.83
2018-10-11T01:04:23.604Z,22.27
2018-10-11T01:06:52.088Z,21.67
2018-10-11T01:09:20.647Z,21.87
2018-10-11T01:11:49.004Z,22.67
2018-10-11T01:14:18.279Z,22.97
2018-10-11T01:16:46.690Z,22.40
2018-10-11T01:19:15.115Z,24.10
2018-10-11T01:21:43.635Z,23.17
2018-10-11T01:24:12.070Z,24.27
2018-10-11T01:26:40.645Z,23.30
2018-10-11T01:29:09.129Z,23.13
2018-10-11T01:31:37.679Z,23.30
2018-10-11T01:34:06.095Z,24.20
2018-10-11T01:36:34.595Z,23.80
2018-10-11T01:39:03.054Z,24.27
2018-10-11T01:41:31.697Z,23.43
2018-10-11T01:44:00.305Z,24.50
2018-10-11T01:46:28.745Z,24.33
2018-10-11T01:48:57.432Z,24.13
2018-10-11T01:51:25.836Z,24.30
2018-10-11T01:53:54.296Z,24.80
2018-10-11T01:56:22.782Z,23.13
2018-10-11T01:58:51.194Z,23.40
2018-10-11T02:01:19.649Z,24.67
2018-10-11T02:03:48.084Z,23.63
2018-10-11T02:06:16.478Z,24.17
2018-10-11T02:08:44.998Z,24.60
2018-10-11T02:11:13.470Z,24.07
2018-10-11T02:13:41.897Z,24.57
2018-10-11T02:16:10.394Z,23.93
2018-10-11T02:18:38.951Z,23.93
2018-10-11T02:21:07.645Z,24.73
2018-10-11T02:23:36.119Z,23.73
2018-10-11T02:26:04.604Z,24.77
2018-10-11T02:28:33.017Z,23.47
2018-10-11T02:31:01.550Z,24.70
2018-10-11T02:33:29.960Z,24.07
2018-10-11T02:35:58.411Z,24.57
2018-10-11T02:38:26.868Z,24.60
2018-10-11T02:40:55.470Z,26.63
2018-10-11T02:43:23.896Z,27.10
2018-10-11T02:45:52.330Z,25.33
2018-10-11T02:48:20.843Z,27.10
2018-10-11T02:50:49.431Z,26.33
2018-10-11T02:53:17.842Z,26.90
2018-10-11T02:55:46.300Z,26.87
2018-10-11T02:58:25.940Z,25.53
2018-10-11T03:00:54.482Z,24.87
2018-10-11T03:03:25.419Z,24.27
2018-10-11T03:05:54.018Z,23.93
2018-10-11T03:08:24.603Z,22.20
2018-10-11T03:10:53.067Z,24.60
2018-10-11T03:13:21.573Z,24.80
2018-10-11T03:15:50.003Z,24.40
2018-10-11T03:18:18.707Z,23.10
2018-10-11T03:20:47.150Z,24.33
2018-10-11T03:23:15.851Z,23.60
2018-10-11T03:25:45.437Z,24.20
2018-10-11T03:28:15.351Z,24.70
2018-10-11T03:30:44.201Z,24.13
2018-10-11T03:33:14.229Z,24.57
2018-10-11T03:35:43.672Z,23.83
2018-10-11T03:38:12.332Z,24.23
2018-10-11T03:40:40.834Z,25.77
2018-10-11T03:43:09.333Z,26.47
2018-10-11T03:45:37.701Z,25.70
2018-10-11T03:48:06.206Z,25.43
2018-10-11T03:50:34.691Z,25.10
2018-10-11T03:53:03.240Z,24.87
2018-10-11T03:55:31.728Z,24.33
2018-10-11T03:58:00.211Z,25.53
2018-10-11T04:00:28.711Z,26.53
2018-10-11T04:02:57.170Z,26.10
2018-10-11T04:05:25.669Z,25.43
2018-10-11T04:07:54.091Z,26.43
2018-10-11T04:10:22.538Z,26.47
2018-10-11T04:12:51.069Z,26.90
2018-10-11T04:15:19.533Z,26.30
2018-10-11T04:17:47.919Z,25.00
2018-10-11T04:20:16.360Z,26.50
2018-10-11T04:22:44.850Z,27.33
2018-10-11T04:25:13.256Z,26.20
2018-10-11T04:27:41.673Z,27.97
2018-10-11T04:30:10.253Z,28.43
2018-10-11T04:32:38.689Z,27.37
2018-10-11T04:35:07.145Z,26.83
2018-10-11T04:37:35.721Z,26.80
2018-10-11T04:40:04.164Z,28.03
2018-10-11T04:42:32.706Z,28.23
2018-10-11T04:45:01.067Z,28.47
2018-10-11T04:47:29.587Z,27.97
2018-10-11T04:49:58.026Z,29.63
2018-10-11T04:52:26.452Z,28.80
2018-10-11T04:54:55.000Z,27.20
2018-10-11T04:57:23.486Z,27.20
2018-10-11T04:59:52.019Z,27.77
2018-10-11T05:02:20.360Z,28.07
2018-10-11T05:04:48.985Z,28.53
2018-10-11T05:07:17.374Z,26.53
2018-10-11T05:09:45.889Z,27.50
2018-10-11T05:12:14.369Z,28.87
2018-10-11T05:14:43.102Z,28.37
2018-10-11T05:17:11.593Z,27.93
2018-10-11T05:19:40.641Z,28.13
2018-10-11T05:22:09.122Z,28.87
2018-10-11T05:24:37.553Z,28.57
2018-10-11T05:27:06.282Z,28.27
2018-10-11T05:29:34.732Z,29.57
2018-10-11T05:32:03.174Z,28.73
2018-10-11T05:34:31.639Z,28.00
2018-10-11T05:37:00.062Z,29.07
2018-10-11T05:39:28.545Z,29.77
2018-10-11T05:41:57.093Z,29.53
2018-10-11T05:44:25.722Z,30.97
2018-10-11T05:46:54.116Z,28.47
2018-10-11T05:49:22.600Z,27.43
2018-10-11T05:51:51.225Z,29.93
2018-10-11T05:54:19.714Z,28.27
2018-10-11T05:56:48.681Z,28.77
2018-10-11T05:59:17.266Z,29.03
2018-10-11T06:01:45.749Z,28.70
2018-10-11T06:04:14.485Z,27.80
2018-10-11T06:06:45.509Z,30.03
2018-10-11T06:09:14.062Z,30.20
2018-10-11T06:11:42.670Z,29.50
2018-10-11T06:14:17.724Z,29.20
2018-10-11T06:16:46.334Z,29.90
2018-10-11T06:19:15.641Z,27.40
2018-10-11T06:21:44.371Z,28.20
2018-10-11T06:24:13.620Z,27.93
2018-10-11T06:26:42.497Z,28.83
2018-10-11T06:29:11.094Z,29.03
2018-10-11T06:31:39.584Z,28.67
2018-10-11T06:34:08.108Z,26.20
2018-10-11T06:36:36.744Z,28.47
2018-10-11T06:39:07.591Z,29.87
2018-10-11T06:41:36.112Z,28.30
2018-10-11T06:44:05.020Z,28.83
2018-10-11T06:46:33.522Z,28.63
2018-10-11T06:49:01.975Z,28.73
2018-10-11T06:51:30.547Z,29.00
2018-10-11T06:53:59.133Z,28.27
2018-10-11T06:56:27.565Z,28.90
2018-10-11T06:58:55.967Z,28.70
2018-10-11T07:01:24.388Z,28.47
2018-10-11T07:03:52.808Z,28.67
2018-10-11T07:06:21.278Z,28.47
2018-10-11T07:08:49.734Z,28.90
2018-10-11T07:11:18.218Z,28.83
2018-10-11T07:13:46.714Z,27.17
2018-10-11T07:16:15.180Z,26.77
2018-10-11T07:18:43.582Z,29.23
2018-10-11T07:21:12.025Z,26.90
2018-10-11T07:23:40.634Z,27.10
2018-10-11T07:26:09.081Z,26.73
2018-10-11T07:28:37.560Z,27.30
2018-10-11T07:31:06.014Z,26.17
2018-10-11T07:33:34.423Z,24.93
2018-10-11T07:36:02.849Z,24.40
2018-10-11T07:38:31.272Z,24.90
2018-10-11T07:40:59.749Z,25.03
2018-10-11T07:43:28.693Z,26.40
2018-10-11T07:45:57.201Z,26.33
2018-10-11T07:48:25.637Z,26.67
2018-10-11T07:50:54.084Z,29.17
2018-10-11T07:53:22.502Z,24.67
2018-10-11T07:55:50.967Z,27.37
2018-10-11T07:58:19.445Z,26.23
2018-10-11T08:00:47.875Z,25.77
2018-10-11T08:03:16.297Z,26.60
2018-10-11T08:05:44.734Z,25.70
2018-10-11T08:08:13.150Z,24.97
2018-10-11T08:10:41.983Z,27.30
2018-10-11T08:13:10.122Z,25.73
2018-10-11T08:15:38.610Z,25.33
2018-10-11T08:18:07.475Z,25.43
2018-10-11T08:20:36.012Z,24.77
2018-10-11T08:23:04.445Z,23.77
2018-10-11T08:25:33.279Z,24.93
2018-10-11T08:28:01.335Z,23.60
2018-10-11T08:30:29.740Z,22.40
2018-10-11T08:32:58.233Z,23.90
2018-10-11T08:35:26.625Z,24.20
2018-10-11T08:37:55.236Z,21.80
2018-10-11T08:40:23.549Z,22.20
2018-10-11T08:42:52.015Z,21.67
2018-10-11T08:45:20.477Z,22.00
2018-10-11T08:47:48.922Z,21.33
2018-10-11T08:50:17.623Z,26.03
2018-10-11T08:52:46.887Z,23.63
2018-10-11T08:55:15.380Z,26.57
2018-10-11T08:57:43.802Z,22.37
2018-10-11T09:00:12.278Z,22.17
2018-10-11T09:02:40.709Z,20.20
2018-10-11T09:05:09.206Z,20.93
2018-10-11T09:07:37.592Z,20.13
2018-10-11T09:10:06.042Z,20.07
2018-10-11T09:12:35.238Z,20.93
2018-10-11T09:15:03.710Z,20.67
2018-10-11T09:17:32.499Z,21.80
2018-10-11T09:20:00.708Z,19.53
2018-10-11T09:22:29.118Z,22.63
2018-10-11T09:24:57.501Z,19.13
2018-10-11T09:27:26.053Z,20.53
2018-10-11T09:29:54.543Z,19.80
2018-10-11T09:32:22.977Z,19.57
2018-10-11T09:34:51.482Z,20.00
2018-10-11T09:37:19.967Z,19.00
2018-10-11T09:39:48.378Z,19.47
2018-10-11T09:42:17.201Z,18.10
2018-10-11T09:44:45.728Z,18.00
2018-10-11T09:47:14.251Z,17.80
2018-10-11T09:49:42.765Z,17.83
2018-10-11T09:52:11.186Z,19.17
2018-10-11T09:54:39.613Z,18.50
2018-10-11T09:57:18.350Z,17.53
2018-10-11T09:59:46.802Z,17.47
2018-10-11T10:02:15.646Z,17.63
2018-10-11T10:04:45.353Z,16.90
2018-10-11T10:07:13.836Z,16.77
2018-10-11T10:09:43.261Z,16.40
2018-10-11T10:12:12.101Z,16.30
2018-10-11T10:14:41.293Z,15.33
2018-10-11T10:17:10.049Z,14.80
2018-10-11T10:19:38.549Z,15.03
2018-10-11T10:22:07.070Z,15.77
2018-10-11T10:24:35.491Z,15.57
2018-10-11T10:27:04.232Z,16.10
2018-10-11T10:29:32.740Z,16.37
2018-10-11T10:32:01.827Z,13.13
2018-10-11T10:34:30.257Z,12.40
2018-10-11T10:36:58.714Z,15.37
2018-10-11T10:39:27.167Z,12.30
2018-10-11T10:41:55.633Z,13.07
2018-10-11T10:44:24.129Z,13.33
2018-10-11T10:46:52.623Z,15.17
2018-10-11T10:49:21.055Z,13.40
2018-10-11T10:51:49.485Z,12.07
2018-10-11T10:54:21.401Z,10.07
2018-10-11T10:56:50.217Z,11.77
2018-10-11T10:59:18.651Z,9.73
2018-10-11T11:01:47.103Z,13.70
2018-10-11T11:04:15.581Z,8.50
2018-10-11T11:06:44.044Z,9.27
2018-10-11T11:09:13.573Z,8.33
2018-10-11T11:11:42.379Z,8.30
2018-10-11T11:14:11.836Z,7.60
2018-10-11T11:16:40.450Z,7.97
2018-10-11T11:19:09.143Z,7.73
2018-10-11T11:21:37.580Z,6.33
2018-10-11T11:24:06.101Z,9.73
2018-10-11T11:26:34.496Z,9.13
2018-10-11T11:29:03.028Z,9.10
2018-10-11T11:31:31.869Z,8.43
2018-10-11T11:34:00.955Z,8.90
2018-10-11T11:36:29.437Z,7.37
2018-10-11T11:38:57.966Z,7.30
2018-10-11T11:41:33.182Z,7.87
2018-10-11T11:44:01.664Z,10.17
2018-10-11T11:46:30.103Z,5.93
2018-10-11T11:48:58.505Z,6.17
2018-10-11T11:51:26.931Z,5.70
2018-10-11T11:53:55.326Z,6.33
2018-10-11T11:56:23.749Z,6.60
2018-10-11T11:58:52.230Z,6.03
2018-10-11T12:01:20.683Z,11.87
2018-10-11T12:03:49.113Z,6.53
2018-10-11T12:06:17.489Z,4.83
2018-10-11T12:08:45.970Z,7.83
2018-10-11T12:11:14.368Z,5.60
2018-10-11T12:13:42.840Z,5.63
2018-10-11T12:16:11.849Z,5.40
2018-10-11T12:18:40.234Z,10.80
2018-10-11T12:21:08.625Z,6.30
2018-10-11T12:23:37.030Z,8.23
2018-10-11T12:26:05.518Z,6.07
2018-10-11T12:28:34.072Z,6.47
2018-10-11T12:31:02.474Z,7.10
2018-10-11T12:33:31.167Z,6.43
2018-10-11T12:35:59.623Z,9.63
2018-10-11T12:38:28.019Z,9.17
2018-10-11T12:40:56.416Z,9.63
2018-10-11T12:43:24.817Z,8.80
2018-10-11T12:45:53.201Z,6.10
2018-10-11T12:48:21.552Z,7.97
2018-10-11T12:50:50.032Z,7.27
2018-10-11T12:53:18.538Z,5.77
2018-10-11T12:55:46.980Z,5.93
2018-10-11T12:58:15.402Z,6.43
2018-10-11T13:00:43.860Z,6.70
2018-10-11T13:03:12.350Z,8.83
2018-10-11T13:05:40.809Z,7.70
2018-10-11T13:08:09.278Z,8.17
2018-10-11T13:10:37.740Z,7.90
2018-10-11T13:13:10.532Z,5.43
2018-10-11T13:15:34.835Z,4.77
2018-10-11T13:18:03.219Z,5.57
2018-10-11T13:20:31.745Z,4.60
2018-10-11T13:23:00.233Z,7.37
2018-10-11T13:25:28.663Z,8.87
2018-10-11T13:27:57.091Z,6.93
2018-10-11T13:30:25.547Z,8.77
2018-10-11T13:32:53.959Z,6.50
2018-10-11T13:35:22.541Z,7.50
2018-10-11T13:37:50.910Z,6.10
2018-10-11T13:40:19.343Z,6.77
2018-10-11T13:42:47.753Z,5.73
2018-10-11T13:45:16.245Z,6.10
2018-10-11T13:47:45.459Z,6.27
2018-10-11T13:50:13.246Z,6.00
2018-10-11T13:52:41.676Z,5.97
2018-10-11T13:55:13.057Z,8.20
2018-10-11T13:57:38.614Z,6.80
2018-10-11T14:00:07.886Z,9.90
2018-10-11T14:02:36.365Z,6.40
2018-10-11T14:05:05.025Z,6.23
2018-10-11T14:07:33.480Z,7.97
2018-10-11T14:10:01.916Z,7.30
2018-10-11T14:12:30.369Z,5.83
2018-10-11T14:14:58.791Z,6.63
2018-10-11T14:17:27.837Z,6.17
2018-10-11T14:19:56.256Z,6.50
2018-10-11T14:22:24.775Z,12.80
2018-10-11T14:24:53.360Z,6.30
2018-10-11T14:27:21.793Z,8.83
2018-10-11T14:29:50.219Z,10.53
2018-10-11T14:32:18.686Z,11.93
2018-10-11T14:34:47.115Z,11.00
2018-10-11T14:37:15.543Z,6.60
2018-10-11T14:39:44.692Z,9.50
2018-10-11T14:42:13.273Z,6.30
2018-10-11T14:44:41.570Z,7.47
2018-10-11T14:47:09.955Z,7.07
2018-10-11T14:49:38.434Z,10.40
2018-10-11T14:52:07.214Z,6.50
2018-10-11T14:54:35.707Z,8.13
2018-10-11T14:57:05.588Z,7.97
2018-10-11T14:59:34.043Z,7.50
2018-10-11T15:02:02.594Z,5.00
2018-10-11T15:04:31.408Z,4.80
2018-10-11T15:06:59.794Z,4.00
2018-10-11T15:09:28.205Z,6.70
2018-10-11T15:11:56.622Z,8.20
2018-10-11T15:14:25.433Z,5.37
2018-10-11T15:16:54.125Z,4.70
2018-10-11T15:19:22.518Z,4.77
2018-10-11T15:21:50.957Z,3.43
2018-10-11T15:24:19.478Z,4.97
2018-10-11T15:26:47.948Z,4.10
2018-10-11T15:29:16.467Z,2.93
2018-10-11T15:31:47.229Z,3.33
2018-10-11T15:34:22.427Z,4.50
2018-10-11T15:36:51.644Z,4.23
2018-10-11T15:39:20.105Z,2.73
2018-10-11T15:41:48.509Z,2.63
2018-10-11T15:44:16.942Z,3.50
2018-10-11T15:46:45.403Z,3.67
2018-10-11T15:49:13.815Z,3.50
2018-10-11T15:51:42.439Z,4.00
2018-10-11T15:54:10.905Z,3.63
2018-10-11T15:56:39.314Z,5.47
2018-10-11T15:59:07.808Z,2.63
2018-10-11T16:01:36.245Z,3.97
2018-10-11T16:04:04.796Z,3.37
2018-10-11T16:06:33.377Z,5.47
2018-10-11T16:11:36.550Z,2.80
2018-10-11T16:14:05.010Z,3.80
2018-10-11T16:16:33.493Z,4.67
2018-10-11T16:19:02.027Z,3.37
2018-10-11T16:21:30.448Z,5.83
2018-10-11T16:23:58.926Z,3.30
2018-10-11T16:26:27.355Z,2.60
2018-10-11T16:28:55.846Z,3.43
2018-10-11T16:31:24.272Z,4.10
2018-10-11T16:33:52.708Z,7.27
2018-10-11T16:36:21.218Z,3.00
2018-10-11T16:38:49.671Z,3.20
2018-10-11T16:41:18.099Z,5.20
2018-10-11T16:43:46.658Z,3.13
2018-10-11T16:46:15.043Z,3.87
2018-10-11T16:48:43.523Z,3.93
2018-10-11T16:51:11.935Z,5.20
2018-10-11T16:53:40.369Z,3.27
2018-10-11T16:56:08.791Z,5.83
2018-10-11T16:58:37.273Z,2.67
2018-10-11T17:01:05.804Z,5.43
2018-10-11T17:03:34.216Z,5.33
2018-10-11T17:06:02.641Z,7.37
2018-10-11T17:08:31.119Z,3.43
2018-10-11T17:11:00.034Z,6.87
2018-10-11T17:13:28.522Z,3.17
2018-10-11T17:15:56.984Z,3.43
2018-10-11T17:18:25.481Z,4.77
2018-10-11T17:20:53.990Z,6.20
2018-10-11T17:23:22.457Z,7.20
2018-10-11T17:25:50.951Z,5.60
2018-10-11T17:28:19.416Z,4.47
2018-10-11T17:30:47.914Z,5.47
2018-10-11T17:33:16.318Z,7.17
2018-10-11T17:35:44.780Z,7.80
2018-10-11T17:38:13.242Z,6.70
2018-10-11T17:40:41.752Z,5.47
2018-10-11T17:43:10.256Z,4.80
2018-10-11T17:45:38.689Z,6.17
2018-10-11T17:48:07.186Z,6.43
2018-10-11T17:50:35.649Z,4.63
2018-10-11T17:53:04.101Z,5.07
2018-10-11T17:55:32.585Z,6.67
2018-10-11T17:58:01.020Z,5.67
2018-10-11T18:00:30.491Z,9.03
2018-10-11T18:03:00.283Z,8.03
2018-10-11T18:05:28.803Z,5.33
2018-10-11T18:07:57.246Z,5.40
2018-10-11T18:10:26.642Z,6.53
2018-10-11T18:12:55.099Z,5.73
2018-10-11T18:15:23.906Z,5.33
2018-10-11T18:17:52.387Z,7.33
2018-10-11T18:20:20.801Z,7.07
2018-10-11T18:22:49.267Z,6.77
2018-10-11T18:25:17.753Z,9.87
2018-10-11T18:27:46.373Z,4.87
2018-10-11T18:30:15.741Z,6.50
2018-10-11T18:32:44.186Z,8.53
2018-10-11T18:35:12.695Z,6.30
2018-10-11T18:37:41.140Z,9.67
2018-10-11T18:40:09.671Z,6.50
2018-10-11T18:42:38.121Z,9.20
2018-10-11T18:45:06.930Z,8.83
2018-10-11T18:47:35.373Z,7.03
2018-10-11T18:50:03.863Z,9.57
2018-10-11T18:52:32.294Z,10.33
2018-10-11T18:55:00.701Z,6.13
2018-10-11T18:57:29.157Z,6.40
2018-10-11T18:59:57.625Z,6.10
2018-10-11T19:02:26.086Z,8.93
2018-10-11T19:04:54.613Z,6.60
2018-10-11T19:07:23.034Z,9.00
2018-10-11T19:09:51.578Z,9.40
2018-10-11T19:12:20.058Z,7.37
2018-10-11T19:14:49.004Z,6.30
2018-10-11T19:17:17.501Z,6.13
2018-10-11T19:19:46.215Z,8.70
2018-10-11T19:22:14.664Z,7.40
2018-10-11T19:24:43.158Z,6.67
2018-10-11T19:27:11.542Z,8.37
2018-10-11T19:29:40.014Z,10.43
2018-10-11T19:32:08.467Z,8.63
2018-10-11T19:34:36.965Z,8.20
2018-10-11T19:37:05.440Z,6.87
2018-10-11T19:39:33.849Z,7.87
2018-10-11T19:42:02.290Z,7.07
2018-10-11T19:44:30.734Z,7.97
2018-10-11T19:46:59.202Z,7.43
2018-10-11T19:49:27.744Z,7.70
2018-10-11T19:51:56.287Z,8.33
2018-10-11T19:54:25.264Z,8.87
2018-10-11T19:56:54.148Z,7.80
2018-10-11T19:59:22.639Z,8.03
2018-10-11T20:01:51.279Z,8.00
2018-10-11T20:04:19.770Z,7.67
2018-10-11T20:06:48.184Z,9.30
2018-10-11T20:09:16.667Z,7.80
2018-10-11T20:11:45.716Z,8.60
2018-10-11T20:14:14.180Z,8.77
2018-10-11T20:16:42.620Z,8.73
2018-10-11T20:19:11.008Z,9.27
2018-10-11T20:21:39.527Z,8.00
2018-10-11T20:24:07.995Z,8.67
2018-10-11T20:26:36.445Z,8.23
2018-10-11T20:29:04.968Z,8.63
2018-10-11T20:31:34.335Z,8.50
2018-10-11T20:34:03.745Z,7.80
2018-10-11T20:36:37.335Z,7.43
2018-10-11T20:39:08.108Z,8.30
2018-10-11T20:41:36.898Z,11.30
2018-10-11T20:44:05.425Z,7.80
2018-10-11T20:46:33.911Z,9.17
2018-10-11T20:49:02.536Z,13.03
2018-10-11T20:51:31.224Z,10.43
2018-10-11T20:54:00.372Z,10.13
2018-10-11T20:56:28.818Z,13.10
2018-10-11T20:58:57.262Z,8.57
2018-10-11T21:01:25.688Z,9.23
2018-10-11T21:03:54.510Z,11.60
2018-10-11T21:06:22.931Z,8.83
2018-10-11T21:08:51.446Z,8.70
2018-10-11T21:11:19.935Z,9.97
2018-10-11T21:13:49.240Z,10.80
2018-10-11T21:16:18.049Z,9.23
2018-10-11T21:18:46.570Z,10.27
2018-10-11T21:21:15.024Z,12.90
2018-10-11T21:23:43.502Z,9.90
2018-10-11T21:26:11.935Z,9.50
2018-10-11T21:28:40.340Z,9.03
2018-10-11T21:31:08.768Z,10.60
2018-10-11T21:33:37.262Z,9.70
2018-10-11T21:36:05.740Z,9.37
2018-10-11T21:38:34.116Z,12.20
2018-10-11T21:41:02.573Z,10.63
2018-10-11T21:43:31.811Z,9.90
2018-10-11T21:46:00.228Z,10.27
2018-10-11T21:48:28.634Z,9.67
2018-10-11T21:50:57.160Z,9.83
2018-10-11T21:53:25.608Z,10.47
2018-10-11T21:55:54.056Z,10.53
2018-10-11T21:58:22.508Z,9.47
2018-10-11T22:00:56.194Z,11.13
2018-10-11T22:03:24.937Z,11.60
2018-10-11T22:05:53.405Z,10.37
2018-10-11T22:08:21.820Z,10.53
2018-10-11T22:10:50.331Z,12.80
2018-10-11T22:13:18.745Z,11.33
2018-10-11T22:15:47.218Z,12.67
2018-10-11T22:18:16.639Z,10.40
2018-10-11T22:20:45.106Z,10.13
2018-10-11T22:23:13.462Z,10.53
2018-10-11T22:25:41.875Z,11.70
2018-10-11T22:28:10.332Z,10.37
2018-10-11T22:30:38.717Z,14.83
2018-10-11T22:33:07.195Z,10.87
2018-10-11T22:35:35.566Z,10.53
2018-10-11T22:38:04.056Z,10.40
2018-10-11T22:40:32.534Z,10.07
2018-10-11T22:43:01.004Z,9.67
2018-10-11T22:45:29.497Z,14.23
2018-10-11T22:47:57.981Z,11.23
2018-10-11T22:50:27.334Z,9.47
2018-10-11T22:52:56.413Z,9.63
2018-10-11T22:55:26.273Z,9.40
2018-10-11T22:57:55.419Z,9.10
2018-10-11T23:00:24.497Z,8.80
2018-10-11T23:02:53.015Z,9.13
2018-10-11T23:05:21.567Z,9.67
2018-10-11T23:07:50.217Z,8.87
2018-10-11T23:10:18.683Z,10.83
2018-10-11T23:12:47.246Z,8.17
2018-10-11T23:15:16.571Z,7.47
2018-10-11T23:17:45.086Z,7.60
2018-10-11T23:20:13.553Z,8.00
2018-10-11T23:22:42.499Z,7.00
2018-10-11T23:25:11.604Z,7.17
2018-10-11T23:27:40.837Z,8.00
2018-10-11T23:30:10.236Z,6.13
2018-10-11T23:32:39.209Z,5.63
2018-10-11T23:35:07.992Z,6.57
2018-10-11T23:37:36.467Z,7.60
2018-10-11T23:40:04.929Z,6.73
2018-10-11T23:42:33.394Z,6.03
2018-10-11T23:45:01.865Z,5.03
2018-10-11T23:47:30.250Z,8.53
2018-10-11T23:49:58.648Z,7.27
2018-10-11T23:52:27.425Z,4.60
2018-10-11T23:54:55.855Z,6.40
2018-10-11T23:57:24.267Z,4.63
2018-10-11T23:59:52.718Z,4.77
